createdAt,value
2023-01-07T00:00:37.292Z,-2.15
2023-01-07T00:03:43.831Z,-1.98
2023-01-07T00:06:54.997Z,-2.01
2023-01-07T00:10:06.717Z,-1.99
2023-01-07T00:13:14.247Z,-2.07
2023-01-07T00:16:23.145Z,-1.91
2023-01-07T00:19:30.470Z,-1.86
2023-01-07T00:22:36.860Z,-1.86
2023-01-07T00:25:45.236Z,-1.84
2023-01-07T00:28:53.548Z,-1.75
2023-01-07T00:32:01.658Z,-1.82
2023-01-07T00:35:24.512Z,-1.84
2023-01-07T00:38:30.876Z,-1.88
2023-01-07T00:41:38.679Z,-1.80
2023-01-07T00:44:45.347Z,-1.81
2023-01-07T00:47:53.732Z,-1.71
2023-01-07T00:51:01.433Z,-1.77
2023-01-07T00:54:09.535Z,-1.87
2023-01-07T00:57:17.551Z,-1.80
2023-01-07T01:00:26.097Z,-1.86
2023-01-07T01:03:34.949Z,-1.86
2023-01-07T01:06:42.998Z,-1.71
2023-01-07T01:09:49.418Z,-1.75
2023-01-07T01:12:58.188Z,-1.79
2023-01-07T01:16:09.028Z,-1.68
2023-01-07T01:19:18.769Z,-1.73
2023-01-07T01:22:25.309Z,-1.67
2023-01-07T01:25:32.719Z,-1.55
2023-01-07T01:28:40.419Z,-1.66
2023-01-07T01:31:49.990Z,-1.61
2023-01-07T01:34:56.994Z,-1.60
2023-01-07T01:38:05.007Z,-1.67
2023-01-07T01:41:12.286Z,-1.61
2023-01-07T01:44:40.398Z,-1.63
2023-01-07T01:47:54.312Z,-1.55
2023-01-07T01:51:01.871Z,-1.48
2023-01-07T01:54:13.205Z,-1.44
2023-01-07T01:57:21.983Z,-1.36
2023-01-07T02:00:35.169Z,-1.46
2023-01-07T02:03:43.087Z,-1.30
2023-01-07T02:07:00.219Z,-1.47
2023-01-07T02:10:15.663Z,-1.42
2023-01-07T02:13:34.898Z,-1.37
2023-01-07T02:16:51.252Z,-1.34
2023-01-07T02:20:32.670Z,-1.32
2023-01-07T02:24:05.128Z,-1.26
2023-01-07T02:27:21.189Z,-1.31
2023-01-07T02:31:10.230Z,-1.26
2023-01-07T02:34:26.101Z,-1.28
2023-01-07T02:37:39.056Z,-1.28
2023-01-07T02:40:53.209Z,-1.31
2023-01-07T02:44:05.960Z,-1.23
2023-01-07T02:47:21.831Z,-1.20
2023-01-07T02:50:32.683Z,-1.28
2023-01-07T02:53:39.443Z,-1.31
2023-01-07T02:57:02.952Z,-1.29
2023-01-07T03:00:26.503Z,-1.25
2023-01-07T03:03:43.049Z,-1.22
2023-01-07T03:07:00.679Z,-1.12
2023-01-07T03:10:14.840Z,-1.18
2023-01-07T03:13:26.488Z,-1.12
2023-01-07T03:16:35.694Z,-1.03
2023-01-07T03:19:44.776Z,-1.13
2023-01-07T03:22:53.369Z,-1.08
2023-01-07T03:26:03.334Z,-1.14
2023-01-07T03:29:16.531Z,-1.08
2023-01-07T03:32:28.606Z,-1.08
2023-01-07T03:35:36.466Z,-0.94
2023-01-07T03:38:45.991Z,-0.89
2023-01-07T03:42:10.919Z,-0.89
2023-01-07T03:45:23.826Z,-0.96
2023-01-07T03:48:30.907Z,-0.94
2023-01-07T03:51:38.933Z,-0.85
2023-01-07T03:54:51.508Z,-0.76
2023-01-07T03:57:59.179Z,-0.88
2023-01-07T04:01:07.644Z,-0.79
2023-01-07T04:04:14.391Z,-0.70
2023-01-07T04:07:22.044Z,-0.70
2023-01-07T04:10:32.203Z,-0.77
2023-01-07T04:13:37.519Z,-0.75
2023-01-07T04:16:44.220Z,-0.72
2023-01-07T04:19:52.705Z,-0.76
2023-01-07T04:23:01.020Z,-0.73
2023-01-07T04:26:09.857Z,-0.72
2023-01-07T04:29:20.763Z,-0.72
2023-01-07T04:32:28.599Z,-0.69
2023-01-07T04:35:36.872Z,-0.71
2023-01-07T04:38:44.444Z,-0.66
2023-01-07T04:41:53.986Z,-0.62
2023-01-07T04:45:01.813Z,-0.61
2023-01-07T04:48:08.705Z,-0.60
2023-01-07T04:51:14.941Z,-0.65
2023-01-07T04:54:22.621Z,-0.55
2023-01-07T04:57:35.232Z,-0.60
2023-01-07T05:00:41.962Z,-0.58
2023-01-07T05:03:48.462Z,-0.57
2023-01-07T05:06:56.199Z,-0.55
2023-01-07T05:10:06.226Z,-0.50
2023-01-07T05:13:19.647Z,-0.47
2023-01-07T05:16:29.204Z,-0.47
2023-01-07T05:19:39.928Z,-0.44
2023-01-07T05:22:50.294Z,-0.45
2023-01-07T05:25:58.614Z,-0.40
2023-01-07T05:29:07.295Z,-0.41
2023-01-07T05:32:14.778Z,-0.41
2023-01-07T05:35:21.235Z,-0.36
2023-01-07T05:38:26.900Z,-0.34
2023-01-07T05:41:33.282Z,-0.31
2023-01-07T05:44:42.770Z,-0.25
2023-01-07T05:47:48.680Z,-0.21
2023-01-07T05:50:56.737Z,-0.21
2023-01-07T05:54:02.261Z,-0.18
2023-01-07T05:57:08.285Z,-0.14
2023-01-07T06:00:16.803Z,-0.12
2023-01-07T06:03:22.685Z,-0.06
2023-01-07T06:06:28.782Z,-0.06
2023-01-07T06:09:34.249Z,-0.02
2023-01-07T06:12:41.317Z,0.01
2023-01-07T06:15:48.505Z,0.05
2023-01-07T06:18:54.429Z,0.10
2023-01-07T06:22:00.227Z,0.14
2023-01-07T06:25:06.763Z,0.18
2023-01-07T06:28:14.069Z,0.20
2023-01-07T06:31:21.847Z,0.23
2023-01-07T06:34:27.755Z,0.28
2023-01-07T06:37:33.247Z,0.27
2023-01-07T06:40:39.438Z,0.28
2023-01-07T06:43:46.769Z,0.30
2023-01-07T06:46:53.917Z,0.28
2023-01-07T06:50:00.047Z,0.31
2023-01-07T06:53:05.830Z,0.35
2023-01-07T06:56:12.520Z,0.39
2023-01-07T06:59:18.223Z,0.39
2023-01-07T07:02:26.612Z,0.42
2023-01-07T07:05:32.608Z,0.46
2023-01-07T07:08:38.534Z,0.45
2023-01-07T07:11:43.945Z,0.47
2023-01-07T07:14:49.933Z,0.48
2023-01-07T07:17:57.152Z,0.46
2023-01-07T07:21:03.284Z,0.50
2023-01-07T07:24:09.840Z,0.52
2023-01-07T07:27:15.966Z,0.54
2023-01-07T07:30:21.680Z,0.58
2023-01-07T07:33:48.852Z,0.60
2023-01-07T07:36:54.683Z,0.62
2023-01-07T07:40:00.374Z,0.62
2023-01-07T07:43:11.052Z,0.62
2023-01-07T07:46:18.222Z,0.60
2023-01-07T07:49:25.650Z,0.66
2023-01-07T07:52:30.827Z,0.65
2023-01-07T07:55:38.007Z,0.66
2023-01-07T07:58:44.444Z,0.68
2023-01-07T08:01:50.831Z,0.69
2023-01-07T08:04:57.869Z,0.68
2023-01-07T08:08:10.225Z,0.68
2023-01-07T08:11:15.789Z,0.68
2023-01-07T08:14:22.103Z,0.67
2023-01-07T08:17:27.863Z,0.70
2023-01-07T08:20:35.385Z,0.70
2023-01-07T08:23:41.654Z,0.72
2023-01-07T08:26:47.041Z,0.73
2023-01-07T08:29:53.271Z,0.72
2023-01-07T08:32:59.397Z,0.71
2023-01-07T08:36:22.007Z,0.68
2023-01-07T08:39:28.744Z,0.72
2023-01-07T08:42:35.026Z,0.76
2023-01-07T08:45:41.064Z,0.72
2023-01-07T08:48:48.233Z,0.74
2023-01-07T08:51:55.744Z,0.78
2023-01-07T08:55:01.504Z,0.73
2023-01-07T08:58:07.081Z,0.78
2023-01-07T09:01:13.591Z,0.79
2023-01-07T09:04:19.354Z,0.81
2023-01-07T09:07:26.086Z,0.87
2023-01-07T09:10:32.249Z,0.88
2023-01-07T09:13:37.577Z,0.91
2023-01-07T09:16:43.490Z,0.91
2023-01-07T09:19:49.790Z,0.95
2023-01-07T09:23:04.300Z,0.93
2023-01-07T09:26:10.391Z,0.92
2023-01-07T09:29:18.054Z,0.99
2023-01-07T09:32:25.034Z,0.98
2023-01-07T09:35:31.052Z,0.99
2023-01-07T09:38:38.665Z,0.97
2023-01-07T09:41:49.944Z,1.01
2023-01-07T09:45:07.288Z,1.01
2023-01-07T09:48:20.146Z,1.06
2023-01-07T09:51:28.167Z,1.11
2023-01-07T09:54:37.685Z,1.08
2023-01-07T09:57:44.391Z,1.14
2023-01-07T10:00:58.590Z,1.16
2023-01-07T10:04:17.029Z,1.14
2023-01-07T10:07:27.426Z,1.21
2023-01-07T10:10:40.144Z,1.14
2023-01-07T10:14:06.516Z,1.21
2023-01-07T10:17:26.561Z,1.26
2023-01-07T10:20:37.804Z,1.28
2023-01-07T10:23:45.548Z,1.28
2023-01-07T10:26:54.775Z,1.22
2023-01-07T10:30:04.494Z,1.22
2023-01-07T10:33:25.203Z,1.22
2023-01-07T10:36:34.967Z,1.17
2023-01-07T10:39:47.483Z,1.18
2023-01-07T10:42:59.157Z,1.23
2023-01-07T10:46:32.760Z,1.25
2023-01-07T10:49:51.906Z,1.21
2023-01-07T10:53:04.533Z,1.25
2023-01-07T10:56:20.937Z,1.24
2023-01-07T10:59:28.516Z,1.24
2023-01-07T11:02:33.946Z,1.19
2023-01-07T11:05:41.510Z,1.25
2023-01-07T11:08:48.477Z,1.21
2023-01-07T11:11:54.936Z,1.17
2023-01-07T11:15:05.214Z,1.17
2023-01-07T11:18:15.849Z,1.11
2023-01-07T11:21:43.483Z,1.18
2023-01-07T11:24:49.940Z,1.18
2023-01-07T11:27:55.666Z,1.21
2023-01-07T11:31:03.248Z,1.23
2023-01-07T11:34:17.868Z,1.26
2023-01-07T11:37:38.482Z,1.24
2023-01-07T11:40:59.859Z,1.31
2023-01-07T11:44:07.553Z,1.36
2023-01-07T11:47:17.480Z,1.42
2023-01-07T11:50:25.700Z,1.40
2023-01-07T11:53:37.375Z,1.34
2023-01-07T11:56:42.772Z,1.31
2023-01-07T11:59:48.855Z,1.39
2023-01-07T12:03:11.253Z,1.38
2023-01-07T12:06:20.852Z,1.43
2023-01-07T12:09:36.666Z,1.39
2023-01-07T12:12:46.343Z,1.42
2023-01-07T12:15:54.173Z,1.43
2023-01-07T12:19:12.371Z,1.46
2023-01-07T12:22:28.786Z,1.43
2023-01-07T12:25:41.998Z,1.43
2023-01-07T12:29:02.735Z,1.45
2023-01-07T12:32:21.738Z,1.41
2023-01-07T12:35:31.409Z,1.41
2023-01-07T12:41:00.226Z,1.41
2023-01-07T12:43:33.763Z,1.42
2023-01-07T12:46:42.428Z,1.40
2023-01-07T12:49:52.952Z,1.41
2023-01-07T12:53:03.300Z,1.40
2023-01-07T12:56:16.596Z,1.40
2023-01-07T13:02:54.712Z,1.45
2023-01-07T13:06:03.488Z,1.44
2023-01-07T13:09:18.273Z,1.46
2023-01-07T13:12:45.579Z,1.49
2023-01-07T13:15:51.950Z,1.49
2023-01-07T13:18:57.824Z,1.48
2023-01-07T13:22:03.524Z,1.51
2023-01-07T13:25:18.658Z,1.50
2023-01-07T13:28:40.824Z,1.53
2023-01-07T13:32:09.333Z,1.51
2023-01-07T13:35:50.468Z,1.51
2023-01-07T13:39:23.021Z,1.50
2023-01-07T13:42:39.148Z,1.47
2023-01-07T13:45:48.407Z,1.50
2023-01-07T13:52:31.995Z,1.53
2023-01-07T13:55:40.653Z,1.51
2023-01-07T13:58:59.164Z,1.53
2023-01-07T14:02:23.041Z,1.52
2023-01-07T14:05:29.532Z,1.54
2023-01-07T14:08:35.691Z,1.52
2023-01-07T14:11:49.482Z,1.55
2023-01-07T14:15:06.388Z,1.57
2023-01-07T14:18:34.704Z,1.56
2023-01-07T14:22:04.948Z,1.54
2023-01-07T14:25:30.646Z,1.58
2023-01-07T14:29:14.910Z,1.58
2023-01-07T14:32:36.735Z,1.58
2023-01-07T14:35:43.826Z,1.59
2023-01-07T14:39:04.494Z,1.60
2023-01-07T14:42:42.206Z,1.57
2023-01-07T14:45:55.710Z,1.56
2023-01-07T14:49:47.932Z,1.56
2023-01-07T14:53:23.725Z,1.58
2023-01-07T14:56:36.985Z,1.55
2023-01-07T15:00:41.476Z,1.58
2023-01-07T15:04:18.352Z,1.58
2023-01-07T15:07:27.294Z,1.61
2023-01-07T15:10:50.074Z,1.57
2023-01-07T15:14:16.604Z,1.58
2023-01-07T15:17:22.394Z,1.61
2023-01-07T15:20:32.294Z,1.62
2023-01-07T15:23:53.291Z,1.62
2023-01-07T15:27:03.824Z,1.59
2023-01-07T15:30:18.318Z,1.62
2023-01-07T15:33:50.392Z,1.63
2023-01-07T15:36:56.184Z,1.66
2023-01-07T15:40:03.586Z,1.70
2023-01-07T15:43:23.453Z,1.67
2023-01-07T15:46:29.804Z,1.68
2023-01-07T15:49:35.182Z,1.69
2023-01-07T15:52:41.181Z,1.72
2023-01-07T15:55:54.898Z,1.73
2023-01-07T15:59:00.374Z,1.75
2023-01-07T16:02:20.340Z,1.77
2023-01-07T16:05:27.381Z,1.78
2023-01-07T16:08:34.571Z,1.77
2023-01-07T16:11:41.915Z,1.76
2023-01-07T16:14:47.123Z,1.81
2023-01-07T16:17:53.450Z,1.81
2023-01-07T16:21:01.222Z,1.86
2023-01-07T16:24:07.881Z,1.86
2023-01-07T16:27:16.094Z,1.86
2023-01-07T16:30:21.835Z,1.86
2023-01-07T16:33:30.007Z,1.90
2023-01-07T16:36:39.664Z,1.90
2023-01-07T16:39:47.679Z,1.91
2023-01-07T16:42:55.487Z,1.94
2023-01-07T16:46:18.282Z,1.94
2023-01-07T16:49:29.705Z,1.97
2023-01-07T16:52:35.964Z,1.93
2023-01-07T16:55:49.960Z,1.95
2023-01-07T16:58:57.749Z,1.98
2023-01-07T17:02:12.796Z,1.95
2023-01-07T17:05:20.466Z,1.98
2023-01-07T17:08:26.012Z,2.03
2023-01-07T17:11:36.004Z,2.03
2023-01-07T17:14:51.257Z,2.00
2023-01-07T17:18:29.020Z,2.02
2023-01-07T17:21:42.865Z,2.00
2023-01-07T17:24:49.862Z,2.03
2023-01-07T17:27:57.555Z,2.01
2023-01-07T17:31:05.393Z,2.04
2023-01-07T17:34:12.991Z,2.06
2023-01-07T17:37:19.852Z,2.05
2023-01-07T17:40:25.550Z,2.09
2023-01-07T17:43:33.858Z,2.05
2023-01-07T17:46:41.102Z,2.08
2023-01-07T17:49:47.570Z,2.06
2023-01-07T17:52:55.028Z,2.05
2023-01-07T17:56:02.207Z,2.10
2023-01-07T17:59:07.761Z,2.07
2023-01-07T18:02:19.444Z,2.09
2023-01-07T18:05:26.895Z,2.11
2023-01-07T18:08:32.904Z,2.09
2023-01-07T18:11:57.986Z,2.10
2023-01-07T18:15:05.040Z,2.12
2023-01-07T18:18:13.848Z,2.07
2023-01-07T18:21:27.260Z,2.07
2023-01-07T18:24:40.154Z,2.05
2023-01-07T18:27:45.992Z,2.10
2023-01-07T18:30:51.755Z,2.07
2023-01-07T18:33:59.075Z,2.06
2023-01-07T18:37:04.567Z,2.05
2023-01-07T18:40:12.009Z,2.07
2023-01-07T18:43:19.187Z,2.06
2023-01-07T18:46:24.979Z,2.09
2023-01-07T18:49:32.296Z,2.11
2023-01-07T18:52:39.950Z,2.13
2023-01-07T18:55:46.273Z,2.16
2023-01-07T18:58:55.056Z,2.14
2023-01-07T19:02:01.104Z,2.15
2023-01-07T19:05:09.587Z,2.19
2023-01-07T19:08:15.535Z,2.21
2023-01-07T19:11:21.223Z,2.18
2023-01-07T19:14:26.595Z,2.18
2023-01-07T19:17:32.581Z,2.17
2023-01-07T19:20:39.824Z,2.19
2023-01-07T19:23:45.073Z,2.21
2023-01-07T19:26:51.896Z,2.20
2023-01-07T19:29:57.938Z,2.21
2023-01-07T19:33:03.288Z,2.22
2023-01-07T19:36:12.868Z,2.21
2023-01-07T19:39:21.105Z,2.24
2023-01-07T19:42:27.220Z,2.21
2023-01-07T19:45:32.931Z,2.24
2023-01-07T19:48:38.698Z,2.22
2023-01-07T19:51:46.079Z,2.21
2023-01-07T19:54:51.437Z,2.22
2023-01-07T19:57:57.647Z,2.21
2023-01-07T20:01:07.233Z,2.20
2023-01-07T20:04:14.393Z,2.25
2023-01-07T20:07:21.557Z,2.23
2023-01-07T20:10:27.996Z,2.24
2023-01-07T20:13:35.034Z,2.25
2023-01-07T20:16:41.884Z,2.25
2023-01-07T20:19:47.426Z,2.24
2023-01-07T20:22:55.087Z,2.26
2023-01-07T20:26:02.225Z,2.25
2023-01-07T20:29:07.966Z,2.23
2023-01-07T20:32:14.225Z,2.25
2023-01-07T20:35:19.708Z,2.27
2023-01-07T20:38:26.933Z,2.25
2023-01-07T20:41:32.470Z,2.28
2023-01-07T20:44:38.161Z,2.26
2023-01-07T20:47:43.748Z,2.27
2023-01-07T20:50:49.437Z,2.27
2023-01-07T20:53:56.736Z,2.31
2023-01-07T20:57:02.849Z,2.31
2023-01-07T21:00:08.906Z,2.29
2023-01-07T21:03:14.661Z,2.30
2023-01-07T21:06:21.807Z,2.29
2023-01-07T21:09:29.626Z,2.36
2023-01-07T21:12:35.170Z,2.36
2023-01-07T21:15:41.022Z,2.37
2023-01-07T21:18:47.255Z,2.38
2023-01-07T21:21:53.070Z,2.41
2023-01-07T21:24:59.826Z,2.38
2023-01-07T21:28:06.802Z,2.44
2023-01-07T21:31:13.430Z,2.45
2023-01-07T21:34:19.304Z,2.42
2023-01-07T21:37:24.719Z,2.40
2023-01-07T21:40:32.062Z,2.47
2023-01-07T21:43:37.696Z,2.49
2023-01-07T21:46:43.368Z,2.48
2023-01-07T21:49:49.879Z,2.47
2023-01-07T21:52:55.673Z,2.46
2023-01-07T21:56:07.781Z,2.44
2023-01-07T21:59:13.563Z,2.46
2023-01-07T22:02:19.007Z,2.48
2023-01-07T22:05:24.738Z,2.49
2023-01-07T22:08:30.419Z,2.48
2023-01-07T22:11:41.678Z,2.50
2023-01-07T22:14:48.236Z,2.49
2023-01-07T22:17:53.927Z,2.53
2023-01-07T22:20:59.028Z,2.52
2023-01-07T22:24:04.848Z,2.50
2023-01-07T22:27:12.907Z,2.51
2023-01-07T22:30:19.928Z,2.48
2023-01-07T22:33:25.647Z,2.47
2023-01-07T22:36:34.048Z,2.48
2023-01-07T22:39:41.681Z,2.46
2023-01-07T22:42:53.322Z,2.46
2023-01-07T22:46:00.635Z,2.49
2023-01-07T22:49:06.086Z,2.47
2023-01-07T22:52:12.705Z,2.46
2023-01-07T22:55:18.779Z,2.47
2023-01-07T22:58:26.140Z,2.42
2023-01-07T23:01:32.280Z,2.41
2023-01-07T23:04:38.553Z,2.37
2023-01-07T23:07:43.839Z,2.46
2023-01-07T23:10:49.781Z,2.47
2023-01-07T23:13:57.337Z,2.48
2023-01-07T23:17:03.494Z,2.47
2023-01-07T23:20:09.489Z,2.49
2023-01-07T23:23:15.425Z,2.48
2023-01-07T23:26:20.867Z,2.46
2023-01-07T23:29:28.204Z,2.51
2023-01-07T23:32:33.434Z,2.49
2023-01-07T23:35:39.359Z,2.49
2023-01-07T23:38:44.783Z,2.51
2023-01-07T23:41:50.476Z,2.53
2023-01-07T23:44:57.749Z,2.52
2023-01-07T23:48:05.903Z,2.54
2023-01-07T23:51:13.664Z,2.52
2023-01-07T23:54:19.340Z,2.55
2023-01-07T23:57:24.601Z,2.61
